<?xml version="1.0" encoding="UTF-8" standalone="no" ?>
<gpx xmlns="http://www.topografix.com/GPX/1/1" xmlns:xsi="http://www.w3.org/2001/XMLSchema-instance" xsi:schemaLocation="http://www.topografix.com/GPX/1/1 http://www.topografix.com/GPX/1/1/gpx.xsd" version="1.1" creator="VisuGPX - https://www.visugpx.com">
  <metadata>
    <name>Entre source et cascade au départ de Rognac</name>
  </metadata>
  <wpt lat="43.4872" lon="5.25004">
    <ele>162</ele>
    <name><![CDATA[Parking près d'une citerne]]></name>
  </wpt>
  <wpt lat="43.48236" lon="5.25449">
    <ele>136</ele>
    <name><![CDATA[La source]]></name>
  </wpt>
  <wpt lat="43.47973" lon="5.25346">
    <ele>134</ele>
    <name><![CDATA[Fin de la partie haute]]></name>
  </wpt>
  <wpt lat="43.48229" lon="5.25304">
    <ele>108</ele>
    <name><![CDATA[La cascade]]></name>
  </wpt>
  <wpt lat="43.484" lon="5.24905">
    <ele>114</ele>
    <name><![CDATA[Fin de la partie basse]]></name>
  </wpt>
  <wpt lat="43.48721" lon="5.25003">
    <ele>162</ele>
    <name><![CDATA[Parking près d'une citerne]]></name>
  </wpt>
  <trk>
    <name><![CDATA[Entre source et cascade au départ de Rognac]]></name>
    <trkseg>
      <trkpt lat="43.4872" lon="5.25004">
        <ele>162</ele>
        <time>2021-05-15T14:25:14+02:00</time>
      </trkpt>
      <trkpt lat="43.48757" lon="5.25029">
        <ele>161</ele>
        <time>2021-05-15T14:25:19+02:00</time>
      </trkpt>
      <trkpt lat="43.48766" lon="5.25055">
        <ele>160</ele>
        <time>2021-05-15T14:25:24+02:00</time>
      </trkpt>
      <trkpt lat="43.4876" lon="5.25071">
        <ele>160</ele>
        <time>2021-05-15T14:25:29+02:00</time>
      </trkpt>
      <trkpt lat="43.48744" lon="5.25086">
        <ele>160</ele>
        <time>2021-05-15T14:25:34+02:00</time>
      </trkpt>
      <trkpt lat="43.48725" lon="5.25098">
        <ele>160</ele>
        <time>2021-05-15T14:25:39+02:00</time>
      </trkpt>
      <trkpt lat="43.48681" lon="5.252">
        <ele>157</ele>
        <time>2021-05-15T14:25:44+02:00</time>
      </trkpt>
      <trkpt lat="43.48653" lon="5.25215">
        <ele>156</ele>
        <time>2021-05-15T14:25:49+02:00</time>
      </trkpt>
      <trkpt lat="43.4864" lon="5.25271">
        <ele>156</ele>
        <time>2021-05-15T14:25:54+02:00</time>
      </trkpt>
      <trkpt lat="43.4861" lon="5.25333">
        <ele>155</ele>
        <time>2021-05-15T14:25:59+02:00</time>
      </trkpt>
      <trkpt lat="43.48592" lon="5.25351">
        <ele>152</ele>
        <time>2021-05-15T14:26:04+02:00</time>
      </trkpt>
      <trkpt lat="43.48575" lon="5.25408">
        <ele>150</ele>
        <time>2021-05-15T14:26:09+02:00</time>
      </trkpt>
      <trkpt lat="43.48525" lon="5.25378">
        <ele>146</ele>
        <time>2021-05-15T14:26:14+02:00</time>
      </trkpt>
      <trkpt lat="43.48514" lon="5.25376">
        <ele>145</ele>
        <time>2021-05-15T14:26:19+02:00</time>
      </trkpt>
      <trkpt lat="43.48475" lon="5.25391">
        <ele>143</ele>
        <time>2021-05-15T14:26:24+02:00</time>
      </trkpt>
      <trkpt lat="43.48405" lon="5.2539">
        <ele>148</ele>
        <time>2021-05-15T14:26:29+02:00</time>
      </trkpt>
      <trkpt lat="43.48276" lon="5.25423">
        <ele>138</ele>
        <time>2021-05-15T14:26:34+02:00</time>
      </trkpt>
      <trkpt lat="43.48236" lon="5.25449">
        <ele>136</ele>
        <time>2021-05-15T14:26:39+02:00</time>
      </trkpt>
      <trkpt lat="43.48219" lon="5.25436">
        <ele>137</ele>
        <time>2021-05-15T14:26:44+02:00</time>
      </trkpt>
      <trkpt lat="43.48192" lon="5.25435">
        <ele>136</ele>
        <time>2021-05-15T14:26:49+02:00</time>
      </trkpt>
      <trkpt lat="43.48159" lon="5.25452">
        <ele>135</ele>
        <time>2021-05-15T14:26:54+02:00</time>
      </trkpt>
      <trkpt lat="43.48136" lon="5.25452">
        <ele>135</ele>
        <time>2021-05-15T14:26:59+02:00</time>
      </trkpt>
      <trkpt lat="43.48116" lon="5.25449">
        <ele>135</ele>
        <time>2021-05-15T14:27:04+02:00</time>
      </trkpt>
      <trkpt lat="43.48057" lon="5.25412">
        <ele>135</ele>
        <time>2021-05-15T14:27:09+02:00</time>
      </trkpt>
      <trkpt lat="43.48031" lon="5.25403">
        <ele>136</ele>
        <time>2021-05-15T14:27:14+02:00</time>
      </trkpt>
      <trkpt lat="43.4801" lon="5.25371">
        <ele>134</ele>
        <time>2021-05-15T14:27:19+02:00</time>
      </trkpt>
      <trkpt lat="43.47973" lon="5.25346">
        <ele>134</ele>
        <time>2021-05-15T14:27:24+02:00</time>
      </trkpt>
      <trkpt lat="43.47967" lon="5.25332">
        <ele>135</ele>
        <time>2021-05-15T14:27:29+02:00</time>
      </trkpt>
      <trkpt lat="43.47988" lon="5.2532">
        <ele>131</ele>
        <time>2021-05-15T14:27:34+02:00</time>
      </trkpt>
      <trkpt lat="43.48028" lon="5.2528">
        <ele>125</ele>
        <time>2021-05-15T14:27:39+02:00</time>
      </trkpt>
      <trkpt lat="43.48039" lon="5.25231">
        <ele>128</ele>
        <time>2021-05-15T14:27:44+02:00</time>
      </trkpt>
      <trkpt lat="43.48068" lon="5.252">
        <ele>128</ele>
        <time>2021-05-15T14:27:49+02:00</time>
      </trkpt>
      <trkpt lat="43.481" lon="5.25185">
        <ele>118</ele>
        <time>2021-05-15T14:27:54+02:00</time>
      </trkpt>
      <trkpt lat="43.48138" lon="5.25125">
        <ele>107</ele>
        <time>2021-05-15T14:27:59+02:00</time>
      </trkpt>
      <trkpt lat="43.48137" lon="5.25158">
        <ele>106</ele>
        <time>2021-05-15T14:28:04+02:00</time>
      </trkpt>
      <trkpt lat="43.48128" lon="5.252">
        <ele>103</ele>
        <time>2021-05-15T14:28:09+02:00</time>
      </trkpt>
      <trkpt lat="43.48094" lon="5.25227">
        <ele>107</ele>
        <time>2021-05-15T14:28:14+02:00</time>
      </trkpt>
      <trkpt lat="43.4809" lon="5.25232">
        <ele>106</ele>
        <time>2021-05-15T14:28:19+02:00</time>
      </trkpt>
      <trkpt lat="43.48086" lon="5.25253">
        <ele>101</ele>
        <time>2021-05-15T14:28:24+02:00</time>
      </trkpt>
      <trkpt lat="43.48096" lon="5.25288">
        <ele>106</ele>
        <time>2021-05-15T14:28:29+02:00</time>
      </trkpt>
      <trkpt lat="43.48108" lon="5.25294">
        <ele>101</ele>
        <time>2021-05-15T14:28:34+02:00</time>
      </trkpt>
      <trkpt lat="43.48115" lon="5.25292">
        <ele>100</ele>
        <time>2021-05-15T14:28:39+02:00</time>
      </trkpt>
      <trkpt lat="43.4813" lon="5.25276">
        <ele>98</ele>
        <time>2021-05-15T14:28:44+02:00</time>
      </trkpt>
      <trkpt lat="43.48144" lon="5.25276">
        <ele>99</ele>
        <time>2021-05-15T14:28:49+02:00</time>
      </trkpt>
      <trkpt lat="43.48159" lon="5.25268">
        <ele>98</ele>
        <time>2021-05-15T14:28:54+02:00</time>
      </trkpt>
      <trkpt lat="43.48191" lon="5.25275">
        <ele>98</ele>
        <time>2021-05-15T14:28:59+02:00</time>
      </trkpt>
      <trkpt lat="43.48215" lon="5.25299">
        <ele>107</ele>
        <time>2021-05-15T14:29:04+02:00</time>
      </trkpt>
      <trkpt lat="43.48229" lon="5.25304">
        <ele>108</ele>
        <time>2021-05-15T14:29:09+02:00</time>
      </trkpt>
      <trkpt lat="43.48238" lon="5.25292">
        <ele>109</ele>
        <time>2021-05-15T14:29:14+02:00</time>
      </trkpt>
      <trkpt lat="43.48239" lon="5.25276">
        <ele>107</ele>
        <time>2021-05-15T14:29:19+02:00</time>
      </trkpt>
      <trkpt lat="43.48234" lon="5.25271">
        <ele>105</ele>
        <time>2021-05-15T14:29:24+02:00</time>
      </trkpt>
      <trkpt lat="43.48232" lon="5.25252">
        <ele>105</ele>
        <time>2021-05-15T14:29:29+02:00</time>
      </trkpt>
      <trkpt lat="43.48235" lon="5.25189">
        <ele>104</ele>
        <time>2021-05-15T14:29:34+02:00</time>
      </trkpt>
      <trkpt lat="43.48257" lon="5.25137">
        <ele>104</ele>
        <time>2021-05-15T14:29:39+02:00</time>
      </trkpt>
      <trkpt lat="43.48278" lon="5.25118">
        <ele>105</ele>
        <time>2021-05-15T14:29:44+02:00</time>
      </trkpt>
      <trkpt lat="43.4831" lon="5.25125">
        <ele>105</ele>
        <time>2021-05-15T14:29:49+02:00</time>
      </trkpt>
      <trkpt lat="43.48359" lon="5.25148">
        <ele>103</ele>
        <time>2021-05-15T14:29:54+02:00</time>
      </trkpt>
      <trkpt lat="43.48373" lon="5.25166">
        <ele>105</ele>
        <time>2021-05-15T14:29:59+02:00</time>
      </trkpt>
      <trkpt lat="43.48426" lon="5.25192">
        <ele>101</ele>
        <time>2021-05-15T14:30:04+02:00</time>
      </trkpt>
      <trkpt lat="43.48446" lon="5.25211">
        <ele>102</ele>
        <time>2021-05-15T14:30:09+02:00</time>
      </trkpt>
      <trkpt lat="43.48456" lon="5.25233">
        <ele>103</ele>
        <time>2021-05-15T14:30:14+02:00</time>
      </trkpt>
      <trkpt lat="43.48457" lon="5.25252">
        <ele>107</ele>
        <time>2021-05-15T14:30:19+02:00</time>
      </trkpt>
      <trkpt lat="43.48461" lon="5.2527">
        <ele>108</ele>
        <time>2021-05-15T14:30:24+02:00</time>
      </trkpt>
      <trkpt lat="43.48468" lon="5.25279">
        <ele>107</ele>
        <time>2021-05-15T14:30:29+02:00</time>
      </trkpt>
      <trkpt lat="43.48475" lon="5.25278">
        <ele>105</ele>
        <time>2021-05-15T14:30:34+02:00</time>
      </trkpt>
      <trkpt lat="43.48483" lon="5.25265">
        <ele>105</ele>
        <time>2021-05-15T14:30:39+02:00</time>
      </trkpt>
      <trkpt lat="43.48511" lon="5.25186">
        <ele>100</ele>
        <time>2021-05-15T14:30:44+02:00</time>
      </trkpt>
      <trkpt lat="43.48527" lon="5.25166">
        <ele>104</ele>
        <time>2021-05-15T14:30:49+02:00</time>
      </trkpt>
      <trkpt lat="43.48545" lon="5.25155">
        <ele>108</ele>
        <time>2021-05-15T14:30:54+02:00</time>
      </trkpt>
      <trkpt lat="43.48549" lon="5.25147">
        <ele>108</ele>
        <time>2021-05-15T14:30:59+02:00</time>
      </trkpt>
      <trkpt lat="43.48549" lon="5.25135">
        <ele>108</ele>
        <time>2021-05-15T14:31:04+02:00</time>
      </trkpt>
      <trkpt lat="43.48537" lon="5.25107">
        <ele>110</ele>
        <time>2021-05-15T14:31:09+02:00</time>
      </trkpt>
      <trkpt lat="43.48524" lon="5.25044">
        <ele>115</ele>
        <time>2021-05-15T14:31:14+02:00</time>
      </trkpt>
      <trkpt lat="43.4847" lon="5.24998">
        <ele>117</ele>
        <time>2021-05-15T14:31:19+02:00</time>
      </trkpt>
      <trkpt lat="43.484" lon="5.24905">
        <ele>114</ele>
        <time>2021-05-15T14:31:24+02:00</time>
      </trkpt>
      <trkpt lat="43.48409" lon="5.24909">
        <ele>117</ele>
        <time>2021-05-15T14:31:29+02:00</time>
      </trkpt>
      <trkpt lat="43.48426" lon="5.24931">
        <ele>118</ele>
        <time>2021-05-15T14:31:34+02:00</time>
      </trkpt>
      <trkpt lat="43.48483" lon="5.24966">
        <ele>128</ele>
        <time>2021-05-15T14:31:39+02:00</time>
      </trkpt>
      <trkpt lat="43.48508" lon="5.24981">
        <ele>130</ele>
        <time>2021-05-15T14:31:44+02:00</time>
      </trkpt>
      <trkpt lat="43.48535" lon="5.24974">
        <ele>139</ele>
        <time>2021-05-15T14:31:49+02:00</time>
      </trkpt>
      <trkpt lat="43.48552" lon="5.24966">
        <ele>145</ele>
        <time>2021-05-15T14:31:54+02:00</time>
      </trkpt>
      <trkpt lat="43.48578" lon="5.24968">
        <ele>151</ele>
        <time>2021-05-15T14:31:59+02:00</time>
      </trkpt>
      <trkpt lat="43.48601" lon="5.24978">
        <ele>152</ele>
        <time>2021-05-15T14:32:04+02:00</time>
      </trkpt>
      <trkpt lat="43.48628" lon="5.25">
        <ele>154</ele>
        <time>2021-05-15T14:32:09+02:00</time>
      </trkpt>
      <trkpt lat="43.48665" lon="5.24977">
        <ele>159</ele>
        <time>2021-05-15T14:32:14+02:00</time>
      </trkpt>
      <trkpt lat="43.48686" lon="5.2497">
        <ele>161</ele>
        <time>2021-05-15T14:32:19+02:00</time>
      </trkpt>
      <trkpt lat="43.48713" lon="5.24972">
        <ele>163</ele>
        <time>2021-05-15T14:32:24+02:00</time>
      </trkpt>
      <trkpt lat="43.48721" lon="5.25003">
        <ele>162</ele>
        <time>2021-05-15T14:32:29+02:00</time>
      </trkpt>
    </trkseg>
  </trk>
</gpx>